TimeCST,TemperatureF,Dew PointF,Humidity,Sea Level PressureIn,VisibilityMPH,Wind Direction,Wind SpeedMPH,Gust SpeedMPH,PrecipitationIn,Events,Conditions,WindDirDegrees,DateUTC
12:15 AM,37.4,30.2,75,30.19,8.0,NNE,3.5,-,N/A,,Partly Cloudy,30,2013-02-21 06:15:00
12:35 AM,37.4,30.2,75,30.18,10.0,NE,3.5,-,N/A,,Scattered Clouds,40,2013-02-21 06:35:00
12:55 AM,37.4,30.2,75,30.18,10.0,NE,3.5,-,N/A,,Mostly Cloudy,40,2013-02-21 06:55:00
1:15 AM,35.6,30.2,81,30.18,10.0,NNE,4.6,-,N/A,,Partly Cloudy,30,2013-02-21 07:15:00
1:35 AM,35.6,30.2,81,30.18,10.0,NNE,4.6,-,N/A,,Mostly Cloudy,30,2013-02-21 07:35:00
1:55 AM,35.6,30.2,81,30.18,10.0,NE,4.6,-,N/A,,Mostly Cloudy,40,2013-02-21 07:55:00
2:15 AM,35.6,30.2,81,30.16,10.0,ENE,4.6,-,N/A,,Scattered Clouds,70,2013-02-21 08:15:00
2:35 AM,35.6,30.2,81,30.15,10.0,NE,4.6,-,N/A,,Mostly Cloudy,40,2013-02-21 08:35:00
2:55 AM,35.6,30.2,81,30.15,10.0,NE,3.5,-,N/A,,Mostly Cloudy,40,2013-02-21 08:55:00
3:15 AM,35.6,30.2,81,30.14,10.0,NE,5.8,-,N/A,,Mostly Cloudy,40,2013-02-21 09:15:00
3:35 AM,37.4,30.2,75,30.15,10.0,NNE,4.6,-,N/A,,Mostly Cloudy,20,2013-02-21 09:35:00
3:55 AM,35.6,30.2,81,30.14,10.0,NE,4.6,-,N/A,,Scattered Clouds,40,2013-02-21 09:55:00
4:15 AM,35.6,30.2,81,30.13,10.0,NE,4.6,-,N/A,,Mostly Cloudy,40,2013-02-21 10:15:00
4:35 AM,35.6,30.2,81,30.13,10.0,Calm,Calm,-,N/A,,Scattered Clouds,0,2013-02-21 10:35:00
4:55 AM,35.6,30.2,81,30.15,10.0,NE,3.5,-,N/A,,Scattered Clouds,40,2013-02-21 10:55:00
5:15 AM,35.6,30.2,81,30.13,10.0,East,4.6,-,N/A,,Clear,80,2013-02-21 11:15:00
5:35 AM,37.4,32.0,81,30.12,10.0,ENE,5.8,-,N/A,,Mostly Cloudy,60,2013-02-21 11:35:00
5:55 AM,37.4,32.0,81,30.12,10.0,NE,5.8,-,N/A,,Mostly Cloudy,40,2013-02-21 11:55:00
6:15 AM,37.4,32.0,81,30.13,10.0,NE,5.8,-,N/A,,Mostly Cloudy,40,2013-02-21 12:15:00
6:35 AM,37.4,32.0,81,30.14,10.0,NE,8.1,-,N/A,,Overcast,50,2013-02-21 12:35:00
6:55 AM,37.4,32.0,81,30.14,10.0,ENE,4.6,-,N/A,,Mostly Cloudy,70,2013-02-21 12:55:00
7:15 AM,37.4,32.0,81,30.14,10.0,ENE,5.8,-,N/A,,Mostly Cloudy,70,2013-02-21 13:15:00
7:35 AM,37.4,32.0,81,30.14,9.0,ENE,4.6,-,N/A,,Mostly Cloudy,70,2013-02-21 13:35:00
7:55 AM,39.2,32.0,75,30.15,9.0,ESE,5.8,-,N/A,,Mostly Cloudy,110,2013-02-21 13:55:00
8:15 AM,39.2,32.0,75,30.14,10.0,ESE,5.8,-,N/A,,Scattered Clouds,110,2013-02-21 14:15:00
8:35 AM,41.0,33.8,76,30.14,9.0,ESE,6.9,-,N/A,,Partly Cloudy,120,2013-02-21 14:35:00
8:55 AM,42.8,33.8,70,30.13,10.0,East,6.9,-,N/A,,Partly Cloudy,100,2013-02-21 14:55:00
9:15 AM,44.6,35.6,71,30.13,10.0,SE,5.8,-,N/A,,Scattered Clouds,130,2013-02-21 15:15:00
9:35 AM,48.2,37.4,66,30.11,10.0,East,5.8,-,N/A,,Scattered Clouds,90,2013-02-21 15:35:00
9:55 AM,50.0,39.2,66,30.10,10.0,SSE,6.9,-,N/A,,Mostly Cloudy,150,2013-02-21 15:55:00
10:15 AM,51.8,39.2,62,30.06,10.0,ESE,10.4,-,N/A,,Scattered Clouds,110,2013-02-21 16:15:00
10:35 AM,53.6,41.0,62,30.01,9.0,ESE,11.5,17.3,N/A,,Clear,110,2013-02-21 16:35:00
10:55 AM,53.6,42.8,67,30.03,10.0,SE,10.4,-,N/A,,Clear,140,2013-02-21 16:55:00
11:15 AM,53.6,41.0,62,30.01,10.0,SE,10.4,-,N/A,,Partly Cloudy,140,2013-02-21 17:15:00
11:35 AM,53.6,41.0,62,30.01,9.0,SE,9.2,16.1,N/A,,Partly Cloudy,140,2013-02-21 17:35:00
12:15 PM,53.6,41.0,62,29.97,9.0,SE,5.8,-,N/A,,Partly Cloudy,140,2013-02-21 18:15:00
12:35 PM,51.8,42.8,71,29.94,7.0,SE,6.9,-,N/A,,Light Drizzle,140,2013-02-21 18:35:00
12:55 PM,51.8,41.0,67,29.85,5.0,SE,15.0,20.7,N/A,,Haze,130,2013-02-21 18:55:00
1:15 PM,57.2,46.4,67,29.87,10.0,SSE,11.5,21.9,N/A,,Partly Cloudy,160,2013-02-21 19:15:00
1:35 PM,55.4,44.6,67,29.87,9.0,SSE,10.4,24.2,N/A,,Mostly Cloudy,150,2013-02-21 19:35:00
1:55 PM,51.8,41.0,67,29.86,4.0,SSE,11.5,-,N/A,,Light Drizzle,150,2013-02-21 19:55:00
2:15 PM,48.2,39.2,71,29.90,3.0,SSE,6.9,-,N/A,Rain,Rain,160,2013-02-21 20:15:00
2:35 PM,46.4,39.2,76,29.87,4.0,SE,6.9,-,0.04,,Haze,130,2013-02-21 20:35:00
2:55 PM,46.4,41.0,81,29.87,3.0,SE,5.8,-,0.05,Rain,Light Rain,140,2013-02-21 20:55:00
3:15 PM,46.4,39.2,76,29.86,3.0,Calm,Calm,-,0.01,Rain,Light Rain,0,2013-02-21 21:15:00
3:35 PM,46.4,41.0,81,29.86,1.8,Calm,Calm,-,0.05,Rain,Light Rain,0,2013-02-21 21:35:00
4:15 PM,46.4,44.6,93,29.84,5.0,Calm,Calm,-,N/A,,Light Drizzle,0,2013-02-21 22:15:00
5:15 PM,46.4,44.6,93,29.90,5.0,WNW,4.6,-,N/A,Rain,Light Rain,290,2013-02-21 23:15:00
5:35 PM,46.4,44.6,93,29.92,1.0,SSE,3.5,-,0.11,Rain,Rain,160,2013-02-21 23:35:00
5:55 PM,44.6,44.6,100,29.88,4.0,SE,6.9,-,0.15,Rain,Light Rain,140,2013-02-21 23:55:00
6:15 PM,46.4,44.6,93,29.87,3.0,SE,8.1,-,0.01,Rain,Light Rain,140,2013-02-22 00:15:00
6:35 PM,46.4,46.4,100,29.86,2.0,SE,11.5,-,0.05,Rain,Rain,140,2013-02-22 00:35:00
6:55 PM,46.4,46.4,100,29.85,2.5,SE,11.5,-,0.11,Rain,Light Rain,130,2013-02-22 00:55:00
7:15 PM,46.4,46.4,100,29.87,3.0,SSE,10.4,20.7,0.01,Rain,Light Rain,150,2013-02-22 01:15:00
7:35 PM,46.4,46.4,100,29.82,4.0,SE,10.4,18.4,0.03,,Mostly Cloudy,130,2013-02-22 01:35:00
7:55 PM,48.2,46.4,93,29.84,10.0,SE,6.9,16.1,0.03,,Scattered Clouds,140,2013-02-22 01:55:00
8:15 PM,48.2,48.2,100,29.85,7.0,SSE,8.1,-,N/A,,Mostly Cloudy,150,2013-02-22 02:15:00
8:35 PM,48.2,48.2,100,29.83,10.0,SE,8.1,-,N/A,,Mostly Cloudy,140,2013-02-22 02:35:00
8:55 PM,50.0,50.0,100,29.84,7.0,SSE,6.9,-,N/A,,Mostly Cloudy,150,2013-02-22 02:55:00
9:15 PM,51.8,50.0,94,29.85,3.0,SSE,10.4,16.1,N/A,Rain,Light Rain,150,2013-02-22 03:15:00
9:35 PM,51.8,51.8,100,29.86,7.0,SSE,9.2,16.1,0.01,,Overcast,160,2013-02-22 03:35:00
9:55 PM,51.8,51.8,100,29.85,8.0,SSE,11.5,-,0.01,,Overcast,160,2013-02-22 03:55:00
10:15 PM,51.8,51.8,100,29.87,7.0,SSE,6.9,-,N/A,,Overcast,150,2013-02-22 04:15:00
10:35 PM,51.8,51.8,100,29.87,9.0,SSE,6.9,-,N/A,,Overcast,160,2013-02-22 04:35:00
10:55 PM,53.6,51.8,94,29.87,9.0,SSE,4.6,-,N/A,,Mostly Cloudy,160,2013-02-22 04:55:00
11:15 PM,53.6,51.8,94,29.88,9.0,SSE,3.5,-,N/A,,Mostly Cloudy,160,2013-02-22 05:15:00
11:35 PM,53.6,53.6,100,29.89,8.0,SSW,3.5,-,N/A,,Overcast,200,2013-02-22 05:35:00
11:55 PM,53.6,53.6,100,29.90,7.0,West,4.6,-,N/A,,Overcast,260,2013-02-22 05:55:00